KMEI/MEI METAR and TAF weather

Enter ICAO airport designator
Station Type Date Time Source
KMEI METAR 2022/06/30 01:58 UTC NOAA

KMEI 300158Z 08004KT 10SM CLR 25/21 A3016 RMK AO2 SLP208 T02500211


Station Type Date Time Source
KMEI Decoded METAR 2022/06/30 01:58 UTC NOAA

MERIDIAN KEY FIELD, MS, United States (KMEI) 32-20N 088-45W 89M
Jun 29, 2022 - 09:58 PM EDT / 2022.06.30 0158 UTC
Wind: from the E (080 degrees) at 5 MPH (4 KT):0
Visibility: 10 mile(s):0
Sky conditions: clear
Temperature: 77.0 F (25.0 C)
Dew Point: 70.0 F (21.1 C)
Relative Humidity: 78%
Pressure (altimeter): 30.16 in. Hg (1021 hPa)
ob: KMEI 300158Z 08004KT 10SM CLR 25/21 A3016 RMK AO2 SLP208 T02500211
cycle: 2

Station Type Date Time Source
KMEI TAF 2022/06/30 00:06 UTC NOAA

TAF KMEI 300003Z 3000/3024 14003KT P6SM SCT050
FM301900 14008KT P6SM VCSH BKN035

Example: see airport list